Acton, Texas
Current Conditions -  °F | °C
As of 1:55 PM on Friday 24 Oct 2014 (Local Time) from KGDJ Reporting Station
Clear Clear  
Wind Chill: 30°   Ceiling: Unl
Heat Index: 30°   Visibility: 10mi
Dew Point: 16°   Wind: 8mph
Humidity: 43%   Direction: 180°S
Pressure: 30.11"   Gusts: NA
Location:  32.4693°N, 97.7085°W
Report Text: KGDJ 241855Z AUTO 18007KT 10SM CLR 30/16 A3011 RMK AO2 T02960157
Loading
Personal Weather Stations






























Interactive Weather Map
Tropical Storm Tracking
New forecast layout! Learn more

10-Day Weather Forecast

Advertisements
Track Severe Weather on mobile